Terminal Aerodrome Forecast
Issued by NWS

Home | Current Version | Previous Version | Text Only | Print | Product List | Glossary Off
Versions: 1 2 3 4 5 6 7 8 9 10 11 12 13 14 15 16 17 18 19 20 21 22

000
FTUS43 KICT 012342
TAFCNU
TAF
KCNU 012342Z 0200/0224 20013KT P6SM VCTS SCT050CB BKN100
      TEMPO 0200/0203 -TSRA BKN050CB
     FM020300 24010KT P6SM VCTS BKN090CB
     FM020900 35009KT P6SM BKN025
     FM021500 02014KT P6SM BKN120=

USA.gov is the U.S. government's official web portal to all federal, state and local government web resources and services.